createdAt,value
2023-03-26T00:02:19.254Z,7.90
2023-03-26T00:07:23.261Z,7.70
2023-03-26T00:12:26.696Z,7.70
2023-03-26T00:17:30.265Z,7.70
2023-03-26T00:22:33.457Z,7.70
2023-03-26T00:27:36.792Z,7.70
2023-03-26T00:32:40.420Z,7.60
2023-03-26T00:37:46.425Z,7.60
2023-03-26T00:42:49.736Z,7.60
2023-03-26T00:47:53.042Z,7.50
2023-03-26T00:52:56.290Z,7.50
2023-03-26T00:57:59.674Z,7.50
2023-03-26T01:03:05.096Z,7.40
2023-03-26T01:08:27.286Z,7.40
2023-03-26T01:13:38.585Z,7.40
2023-03-26T01:18:41.834Z,7.30
2023-03-26T01:23:51.663Z,7.30
2023-03-26T01:28:59.200Z,7.40
2023-03-26T01:34:22.801Z,7.40
2023-03-26T01:39:43.055Z,7.40
2023-03-26T01:45:08.487Z,7.40
2023-03-26T01:50:12.476Z,7.50
2023-03-26T01:55:16.352Z,7.40
2023-03-26T02:00:38.272Z,7.40
2023-03-26T02:05:53.227Z,7.40
2023-03-26T02:10:59.451Z,7.40
2023-03-26T02:16:05.452Z,7.40
2023-03-26T02:21:20.629Z,7.50
2023-03-26T02:26:25.546Z,7.40
2023-03-26T02:31:29.000Z,7.40
2023-03-26T02:36:32.406Z,7.40
2023-03-26T02:41:35.989Z,7.40
2023-03-26T02:46:39.303Z,7.50
2023-03-26T02:51:42.739Z,7.50
2023-03-26T02:56:45.950Z,7.50
2023-03-26T03:01:49.210Z,7.50
2023-03-26T03:06:57.858Z,7.50
2023-03-26T03:12:01.181Z,7.60
2023-03-26T03:17:04.683Z,7.50
2023-03-26T03:22:07.831Z,7.50
2023-03-26T03:27:11.112Z,7.50
2023-03-26T03:32:14.422Z,7.50
2023-03-26T03:37:20.341Z,7.50
2023-03-26T03:42:23.679Z,7.60
2023-03-26T03:47:26.909Z,7.60
2023-03-26T03:52:30.155Z,7.60
2023-03-26T03:57:33.715Z,7.60
2023-03-26T04:02:37.168Z,7.70
2023-03-26T04:07:40.796Z,7.70
2023-03-26T04:12:44.309Z,7.70
2023-03-26T04:17:47.661Z,7.70
2023-03-26T04:22:51.434Z,7.60
2023-03-26T04:27:58.781Z,7.60
2023-03-26T04:33:06.821Z,7.70
2023-03-26T04:38:11.715Z,7.60
2023-03-26T04:43:18.310Z,7.60
2023-03-26T04:48:22.334Z,7.60
2023-03-26T04:53:25.687Z,7.60
2023-03-26T04:58:33.319Z,7.50
2023-03-26T05:03:39.634Z,7.60
2023-03-26T05:08:42.967Z,7.50
2023-03-26T05:13:47.479Z,7.50
2023-03-26T05:18:51.872Z,7.50
2023-03-26T05:23:55.180Z,7.50
2023-03-26T05:28:58.832Z,7.50
2023-03-26T05:34:02.769Z,7.50
2023-03-26T05:39:06.484Z,7.50
2023-03-26T05:44:10.413Z,7.60
2023-03-26T05:49:13.832Z,7.70
2023-03-26T05:54:17.395Z,7.70
2023-03-26T05:59:20.938Z,7.70
2023-03-26T06:04:24.333Z,7.80
2023-03-26T06:09:27.709Z,7.80
2023-03-26T06:14:31.283Z,7.70
2023-03-26T06:19:34.571Z,7.80
2023-03-26T06:24:41.451Z,7.90
2023-03-26T06:29:44.757Z,8.10
2023-03-26T06:34:47.999Z,8.20
2023-03-26T06:39:51.499Z,8.20
2023-03-26T06:44:54.883Z,8.20
2023-03-26T06:49:58.112Z,8.10
2023-03-26T06:55:01.444Z,8.00
2023-03-26T07:00:06.376Z,7.90
2023-03-26T07:05:09.967Z,8.00
2023-03-26T07:10:13.604Z,7.90
2023-03-26T07:15:18.625Z,7.90
2023-03-26T07:20:22.345Z,8.00
2023-03-26T07:25:26.116Z,8.00
2023-03-26T07:30:39.416Z,7.90
2023-03-26T07:35:56.046Z,8.10
2023-03-26T07:41:14.776Z,8.30
2023-03-26T07:46:24.805Z,8.50
2023-03-26T07:51:29.334Z,8.60
2023-03-26T07:57:12.318Z,8.80
2023-03-26T08:02:21.151Z,8.90
2023-03-26T08:07:54.974Z,8.90
2023-03-26T08:13:25.330Z,9.00
2023-03-26T08:18:39.416Z,9.00
2023-03-26T08:24:13.855Z,9.10
2023-03-26T08:29:52.172Z,9.10
2023-03-26T08:34:57.958Z,9.20
2023-03-26T08:40:01.618Z,9.20
2023-03-26T08:45:34.256Z,9.10
2023-03-26T08:51:05.541Z,9.00
2023-03-26T08:56:27.044Z,9.20
2023-03-26T09:01:42.823Z,9.40
2023-03-26T09:06:58.500Z,9.40
2023-03-26T09:12:20.720Z,9.30
2023-03-26T09:17:46.530Z,9.10
2023-03-26T09:22:52.868Z,9.00
2023-03-26T09:28:30.761Z,8.90
2023-03-26T09:33:48.812Z,8.90
2023-03-26T09:39:02.829Z,9.00
2023-03-26T09:44:21.659Z,9.10
2023-03-26T09:49:43.504Z,9.30
2023-03-26T09:55:11.368Z,9.40
2023-03-26T10:00:43.169Z,9.50
2023-03-26T10:06:10.185Z,9.30
2023-03-26T10:12:03.627Z,9.60
2023-03-26T10:17:07.188Z,9.90
2023-03-26T10:22:13.309Z,10.00
2023-03-26T10:27:34.853Z,10.00
2023-03-26T10:33:26.403Z,9.90
2023-03-26T10:39:09.879Z,9.90
2023-03-26T10:44:49.942Z,9.80
2023-03-26T10:50:23.343Z,9.60
2023-03-26T10:55:47.795Z,10.10
2023-03-26T11:01:29.835Z,10.70
2023-03-26T11:06:39.772Z,11.20
2023-03-26T11:11:56.924Z,11.40
2023-03-26T11:17:10.308Z,11.50
2023-03-26T11:22:42.987Z,11.50
2023-03-26T11:28:01.848Z,11.00
2023-03-26T11:33:10.505Z,10.40
2023-03-26T11:38:22.707Z,10.50
2023-03-26T11:43:35.612Z,11.00
2023-03-26T11:48:44.940Z,11.50
2023-03-26T11:53:49.209Z,11.90
2023-03-26T11:59:11.755Z,12.00
2023-03-26T12:04:17.471Z,11.90
2023-03-26T12:09:21.322Z,11.70
2023-03-26T12:27:48.374Z,11.00
2023-03-26T12:32:57.085Z,10.90
2023-03-26T12:38:24.845Z,10.90
2023-03-26T12:44:56.580Z,10.60
2023-03-26T12:49:12.291Z,10.30
2023-03-26T12:54:50.788Z,10.10
2023-03-26T13:00:24.380Z,9.90
2023-03-26T13:05:45.397Z,9.90
2023-03-26T13:11:13.621Z,10.10
2023-03-26T13:16:41.404Z,10.30
2023-03-26T13:22:21.736Z,10.50
2023-03-26T13:27:37.453Z,11.00
2023-03-26T13:32:41.692Z,11.50
2023-03-26T13:37:51.389Z,12.00
2023-03-26T13:43:41.552Z,12.40
2023-03-26T13:49:17.895Z,12.80
2023-03-26T13:54:24.556Z,12.80
2023-03-26T13:59:32.436Z,12.60
2023-03-26T14:04:48.238Z,12.20
2023-03-26T14:10:13.609Z,11.90
2023-03-26T14:15:29.224Z,11.70
2023-03-26T14:20:34.693Z,11.60
2023-03-26T14:26:07.238Z,11.70
2023-03-26T14:31:51.771Z,11.80
2023-03-26T14:37:27.912Z,11.60
2023-03-26T14:42:40.040Z,11.60
2023-03-26T14:48:26.942Z,11.80
2023-03-26T14:53:44.750Z,12.70
2023-03-26T14:59:35.665Z,12.90
2023-03-26T15:05:17.583Z,15.10
2023-03-26T15:10:35.473Z,15.60
2023-03-26T15:16:09.826Z,15.80
2023-03-26T15:21:37.752Z,14.80
2023-03-26T15:26:59.733Z,13.50
2023-03-26T15:32:34.742Z,12.60
2023-03-26T15:37:54.891Z,12.70
2023-03-26T15:43:23.215Z,12.60
2023-03-26T15:48:37.971Z,13.50
2023-03-26T15:54:05.217Z,13.90
2023-03-26T15:59:17.197Z,12.70
2023-03-26T16:04:52.046Z,11.70
2023-03-26T16:10:19.859Z,11.20
2023-03-26T16:15:35.290Z,12.10
2023-03-26T16:20:58.007Z,13.10
2023-03-26T16:26:14.290Z,13.00
2023-03-26T16:31:38.225Z,12.30
2023-03-26T16:36:48.551Z,11.40
2023-03-26T16:42:06.248Z,11.00
2023-03-26T16:47:52.710Z,10.70
2023-03-26T16:53:02.931Z,10.40
2023-03-26T16:58:30.493Z,10.30
2023-03-26T17:03:48.608Z,10.10
2023-03-26T17:09:05.575Z,9.80
2023-03-26T17:14:14.321Z,9.70
2023-03-26T17:19:45.686Z,9.50
2023-03-26T17:24:59.531Z,9.30
2023-03-26T17:30:32.710Z,9.10
2023-03-26T17:35:47.669Z,9.00
2023-03-26T17:41:01.643Z,8.80
2023-03-26T17:46:32.776Z,8.60
2023-03-26T17:51:58.762Z,8.40
2023-03-26T17:57:14.601Z,8.20
2023-03-26T18:02:29.839Z,8.00
2023-03-26T18:07:47.115Z,7.80
2023-03-26T18:13:38.924Z,7.50
2023-03-26T18:19:05.044Z,7.40
2023-03-26T18:24:17.406Z,7.30
2023-03-26T18:29:27.032Z,7.10
2023-03-26T18:34:34.311Z,7.00
2023-03-26T18:39:44.716Z,6.80
2023-03-26T18:44:59.699Z,6.70
2023-03-26T18:50:08.706Z,6.50
2023-03-26T18:55:17.789Z,6.40
2023-03-26T19:05:50.108Z,6.10
2023-03-26T19:10:56.358Z,5.90
2023-03-26T19:16:08.993Z,5.60
2023-03-26T19:21:16.932Z,5.50
2023-03-26T19:26:23.444Z,5.40
2023-03-26T19:31:39.128Z,5.40
2023-03-26T19:37:01.941Z,5.50
2023-03-26T19:42:08.026Z,5.50
2023-03-26T19:47:39.108Z,5.60
2023-03-26T19:53:25.292Z,5.70
2023-03-26T19:58:30.385Z,5.70
2023-03-26T20:03:44.587Z,5.60
2023-03-26T20:08:51.478Z,5.60
2023-03-26T20:13:59.474Z,5.40
2023-03-26T20:19:04.942Z,5.40
2023-03-26T20:24:26.859Z,5.40
2023-03-26T20:29:33.254Z,5.40
2023-03-26T20:34:37.514Z,5.40
2023-03-26T20:39:42.324Z,5.40
2023-03-26T20:44:45.862Z,5.30
2023-03-26T20:49:49.831Z,5.20
2023-03-26T20:54:53.923Z,5.10
2023-03-26T20:59:57.622Z,5.00
2023-03-26T21:05:02.009Z,4.90
2023-03-26T21:10:06.678Z,4.70
2023-03-26T21:15:20.854Z,4.60
2023-03-26T21:20:33.160Z,4.40
2023-03-26T21:25:56.837Z,4.30
2023-03-26T21:31:00.656Z,4.10
2023-03-26T21:36:04.824Z,4.00
2023-03-26T21:41:08.537Z,3.90
2023-03-26T21:46:12.746Z,3.80
2023-03-26T21:51:19.452Z,3.70
2023-03-26T21:56:47.772Z,3.60
2023-03-26T22:02:03.130Z,3.60
2023-03-26T22:07:06.306Z,3.60
2023-03-26T22:12:11.075Z,3.60
2023-03-26T22:17:14.507Z,3.60
2023-03-26T22:22:17.923Z,3.50
2023-03-26T22:27:21.456Z,3.30
2023-03-26T22:32:24.814Z,3.20
2023-03-26T22:37:37.669Z,3.10
2023-03-26T22:42:41.754Z,3.00
2023-03-26T22:47:45.332Z,2.90
2023-03-26T22:52:49.037Z,2.80
2023-03-26T22:57:53.650Z,2.60
2023-03-26T23:03:01.042Z,2.50
2023-03-26T23:08:04.618Z,2.40
2023-03-26T23:13:08.109Z,2.30
2023-03-26T23:18:12.178Z,2.30
2023-03-26T23:23:15.419Z,2.20
2023-03-26T23:28:21.203Z,2.00
2023-03-26T23:33:30.548Z,1.90
2023-03-26T23:38:43.870Z,1.90
2023-03-26T23:43:55.764Z,1.80
2023-03-26T23:49:05.713Z,1.70
2023-03-26T23:54:09.404Z,1.60
2023-03-26T23:59:12.823Z,1.40
